Thunder radar more information blitzortung!


Radar de pluja more information rain snow radar


Visita la nostra xarxa de llocs de meteo:

Template documentation
and downloads

And another site



No particular awareness of the weather is required.    There are no Weather-warnings

Pagina Historial Weather Underground text

Diari Resum Novembre 2, 2017 Unitats:  Imperial    Mètric   Tant
« Previous Dia
SegĂźent Dia »
Diari Setmana Mensual Anual Personalitzada
  Maxima: Minima: Media:
Temperatura: 70.3 °F 52.3 °F 62.2 °F
Punt de rosada: 60.1 °F 49.5 °F 55 °F
Humitat: 91 % 65 % 78 %
Wind Speed: 15 mph 0 mph 3.4 mph
RĂ fegues de vent: 15 mph - -
Vent:- - SSW
Pression baro: 30.2 in 30 in -
Precipitacions: 0 in    
Historical Graphs
 
 
Dades de taula per Novembre 2, 2017
Temps Temperatura Punt de rosada Pression baro Vent Wind Speed RĂ fegues de vent Humitat Rainfall Rate (Hourly)
00:03 56.3 °F 51.4 °F 30.2 in WSW 1.4 mph 1.4 mph 84 % 0 in
00:05 54 °F 51.1 °F 30.2 in WNW 2 mph 2 mph 90 % 0 in
00:08 56.3 °F 51.4 °F 30.2 in Calm     84 % 0 in
00:15 53.4 °F 50.5 °F 30.2 in Calm   2 mph 90 % 0 in
00:25 53.1 °F 49.8 °F 30.2 in SE 1 mph 2 mph 89 % 0 in
00:35 52.7 °F 49.5 °F 30.2 in Calm   1 mph 89 % 0 in
00:45 52.7 °F 49.5 °F 30.2 in Calm     89 % 0 in
00:55 52.5 °F 49.5 °F 30.2 in Calm     89 % 0 in
01:05 52.5 °F 49.5 °F 30.2 in Calm     89 % 0 in
01:15 52.3 °F 49.5 °F 30.2 in Calm     90 % 0 in
01:25 52.5 °F 49.6 °F 30.2 in Calm     90 % 0 in
01:35 52.5 °F 49.6 °F 30.2 in Calm     90 % 0 in
01:45 52.7 °F 49.8 °F 30.2 in Calm     90 % 0 in
01:55 53.1 °F 50.5 °F 30.2 in Calm   1 mph 91 % 0 in
02:05 53.2 °F 50.7 °F 30.2 in North 1 mph 2 mph 91 % 0 in
02:15 53.4 °F 50.9 °F 30.2 in NNE 1 mph 2 mph 91 % 0 in
02:25 53.2 °F 50.4 °F 30.2 in NE 1 mph 2 mph 90 % 0 in
02:35 53.6 °F 50.7 °F 30.2 in ENE 1 mph 2 mph 90 % 0 in
02:45 53.6 °F 50.7 °F 30.2 in Calm   1 mph 90 % 0 in
02:55 54.3 °F 51.4 °F 30.2 in NE 1 mph 2 mph 90 % 0 in
03:05 55.2 °F 52 °F 30.2 in ENE 2 mph 2 mph 89 % 0 in
03:15 55.4 °F 52 °F 30.2 in East 2 mph 2 mph 88 % 0 in
03:25 55.4 °F 51.6 °F 30.2 in East 1 mph 2 mph 87 % 0 in
03:35 56.3 °F 52.9 °F 30.2 in East 1 mph 2 mph 88 % 0 in
03:45 57 °F 52.9 °F 30.2 in Calm   3 mph 86 % 0 in
03:55 57.4 °F 52.5 °F 30.2 in ESE 3 mph 4 mph 84 % 0 in
04:05 57.7 °F 52.9 °F 30.2 in ESE 2 mph 3 mph 84 % 0 in
04:15 58.3 °F 53.4 °F 30.2 in ESE 1 mph 3 mph 84 % 0 in
10:24 58.5 °F 53.2 °F 30.2 in ESE 3.3 mph 3.3 mph 83 % 0 in
10:25 58.6 °F 53.4 °F 30.2 in ESE 3.3 mph 3.3 mph 83 % 0 in
10:30 59.5 °F 54.3 °F 30.2 in East 1 mph 3 mph 83 % 0 in
10:35 59.5 °F 54 °F 30.2 in East 2 mph 2 mph 82 % 0 in
10:40 60.1 °F 54.5 °F 30.2 in ESE 1 mph 2 mph 82 % 0 in
10:45 60.6 °F 54.9 °F 30.2 in SE 1 mph 2 mph 81 % 0 in
10:50 60.6 °F 54.9 °F 30.2 in ESE 2.3 mph 2.3 mph 81 % 0 in
10:55 60.8 °F 54.7 °F 30.2 in ENE 2 mph 2 mph 80 % 0 in
11:00 60.8 °F 54.7 °F 30.2 in NNE 1.4 mph 1.4 mph 80 % 0 in
11:05 61 °F 54.9 °F 30.2 in NE 2.3 mph 2.3 mph 80 % 0 in
11:10 61.3 °F 55 °F 30.2 in ENE 2.3 mph 2.3 mph 80 % 0 in
11:15 62.1 °F 55.8 °F 30.2 in ENE 3.5 mph 3.5 mph 80 % 0 in
11:20 62.8 °F 55.8 °F 30.2 in NNE 2.9 mph 2.9 mph 78 % 0 in
11:25 62.8 °F 55.8 °F 30.2 in NNE 2.6 mph 2.6 mph 78 % 0 in
11:30 63.1 °F 55.8 °F 30.2 in NNE 3.5 mph 3.5 mph 77 % 0 in
11:35 62.4 °F 55.6 °F 30.2 in NE 3.5 mph 3.5 mph 78 % 0 in
11:40 63.1 °F 55.8 °F 30.2 in ENE 2.3 mph 2.3 mph 77 % 0 in
11:45 64 °F 56.7 °F 30.2 in ENE 2.9 mph 2.9 mph 77 % 0 in
11:50 64.6 °F 57.2 °F 30.2 in NNE 4.6 mph 4.6 mph 77 % 0 in
11:55 64.6 °F 56.8 °F 30.2 in NNE 3.5 mph 3.5 mph 76 % 0 in
12:00 65.3 °F 57.6 °F 30.2 in ENE 2.3 mph 2.3 mph 76 % 0 in
12:05 65.3 °F 57.2 °F 30.2 in NNE 2.9 mph 2.9 mph 75 % 0 in
12:10 65.5 °F 57.4 °F 30.2 in East 2.9 mph   75 % 0 in
12:15 66.4 °F 57.6 °F 30.2 in South 2.6 mph 2.6 mph 73 % 0 in
12:20 66.4 °F 57.6 °F 30.2 in West 2.3 mph 2.3 mph 73 % 0 in
12:25 66.4 °F 57 °F 30.1 in ENE 5.8 mph 5.8 mph 72 % 0 in
12:30 66.7 °F 57.7 °F 30.1 in ENE 2.3 mph 2.3 mph 73 % 0 in
12:35 67.1 °F 58.3 °F 30.1 in WSW 2 mph 2 mph 73 % 0 in
12:40 68.2 °F 59.2 °F 30.1 in SSW 6.4 mph 6.4 mph 73 % 0 in
12:45 69.1 °F 59.2 °F 30.1 in SSW 2 mph 7 mph 71 % 0 in
12:50 69.4 °F 60.1 °F 30.1 in SSW 2 mph 6 mph 72 % 0 in
12:55 69.6 °F 59.7 °F 30.1 in SW 5 mph 10 mph 71 % 0 in
13:00 70 °F 59.2 °F 30.1 in SW 2 mph 6 mph 69 % 0 in
13:05 70 °F 58.8 °F 30.1 in SSW 3 mph 6 mph 68 % 0 in
13:10 69.8 °F 59.2 °F 30.1 in SW 3 mph 7 mph 69 % 0 in
13:15 70.3 °F 59.2 °F 30.1 in SW 2 mph 5 mph 68 % 0 in
13:20 70 °F 58.5 °F 30.1 in SSW 6.9 mph 6.9 mph 67 % 0 in
13:25 70.2 °F 58.6 °F 30.1 in SSW 5 mph 10 mph 67 % 0 in
13:30 69.4 °F 57.9 °F 30.1 in SSW 6 mph 9 mph 67 % 0 in
13:35 69.4 °F 57.6 °F 30.1 in SW 6 mph 10 mph 66 % 0 in
13:40 70 °F 58.1 °F 30.1 in SW 2 mph 10 mph 66 % 0 in
13:45 69.6 °F 57.7 °F 30.1 in SSW 3 mph 10 mph 66 % 0 in
13:50 69.3 °F 57 °F 30.1 in SSW 5 mph 10 mph 65 % 0 in
13:55 69.1 °F 56.8 °F 30.1 in SW 7 mph 11 mph 65 % 0 in
14:00 68.9 °F 57 °F 30.1 in WSW 10.4 mph 10.4 mph 66 % 0 in
14:05 69.1 °F 57.2 °F 30.1 in SW 3 mph 6 mph 66 % 0 in
14:10 68.7 °F 56.8 °F 30.1 in SW 5 mph 10 mph 66 % 0 in
14:15 68.5 °F 56.7 °F 30.1 in SSW 5 mph 12 mph 66 % 0 in
14:20 68.7 °F 57.4 °F 30.1 in SW 5 mph 9 mph 67 % 0 in
14:25 68.5 °F 57 °F 30.1 in SW 3 mph 9 mph 67 % 0 in
14:30 68.7 °F 57.4 °F 30.1 in SW 6.9 mph 6.9 mph 67 % 0 in
14:35 68.7 °F 56.8 °F 30.1 in SW 9.2 mph 9.2 mph 66 % 0 in
14:40 68.7 °F 56.8 °F 30.1 in SSW 9.2 mph 9.2 mph 66 % 0 in
14:45 68.5 °F 56.7 °F 30.1 in SW 8.1 mph 8.1 mph 66 % 0 in
14:50 68.7 °F 56.8 °F 30.1 in WSW 6.9 mph 6.9 mph 66 % 0 in
14:55 68.7 °F 57.4 °F 30.1 in West 5.6 mph 5.6 mph 67 % 0 in
15:00 68.5 °F 56.7 °F 30.1 in SSW 9.2 mph 9.2 mph 66 % 0 in
15:05 68.7 °F 56.8 °F 30.1 in SSW 15 mph 15 mph 66 % 0 in
15:10 69.1 °F 57.2 °F 30.1 in WSW 6 mph 6.2 mph 66 % 0 in
15:15 69.3 °F 57.4 °F 30.1 in SSW 5.8 mph 5.8 mph 66 % 0 in
15:20 69.3 °F 57.4 °F 30.1 in SW 5.8 mph 5.8 mph 66 % 0 in
15:25 69.3 °F 57.4 °F 30.1 in South 8.1 mph 8.1 mph 66 % 0 in
15:30 68.7 °F 56.5 °F 30.1 in WSW 12.7 mph 12.7 mph 65 % 0 in
15:35 68.7 °F 56.8 °F 30.1 in SSW 8.1 mph 8.1 mph 66 % 0 in
15:40 68.7 °F 56.8 °F 30.1 in SSE 11.5 mph 11.5 mph 66 % 0 in
15:45 68.5 °F 56.7 °F 30.1 in SW 5.8 mph 5.8 mph 66 % 0 in
15:50 68.5 °F 56.7 °F 30.1 in WSW 8.1 mph 8.1 mph 66 % 0 in
15:55 68.4 °F 56.7 °F 30.1 in South 9.2 mph 9.2 mph 66 % 0 in
16:00 68.2 °F 56.5 °F 30.1 in West 9.2 mph 9.2 mph 66 % 0 in
16:05 68 °F 56.7 °F 30.1 in WSW 9.2 mph 9.2 mph 67 % 0 in
16:10 68 °F 56.7 °F 30.1 in SSW 4.6 mph 4.6 mph 67 % 0 in
16:15 68.2 °F 56.8 °F 30.1 in SW 8.1 mph 8.1 mph 67 % 0 in
16:20 67.6 °F 56.7 °F 30.1 in SW 8.1 mph 8.1 mph 68 % 0 in
16:25 67.6 °F 57 °F 30.1 in SW 11.5 mph 11.5 mph 69 % 0 in
16:30 67.3 °F 56.8 °F 30.1 in South 6.9 mph 6.9 mph 69 % 0 in
16:35 67.3 °F 57.2 °F 30.1 in SW 6.9 mph 6.9 mph 70 % 0 in
16:40 67.1 °F 57 °F 30 in SSW 5.8 mph 5.8 mph 70 % 0 in
16:45 66.7 °F 57 °F 30 in West 6.9 mph 6.9 mph 71 % 0 in
16:50 66.6 °F 56.8 °F 30 in SW 5.8 mph 5.8 mph 71 % 0 in
16:55 66.4 °F 57 °F 30.1 in SW 6.9 mph 6.9 mph 72 % 0 in
17:00 66.2 °F 56.8 °F 30.1 in WSW 5.8 mph 5.8 mph 72 % 0 in
17:05 65.8 °F 56.8 °F 30.1 in SW 4.6 mph 4.6 mph 73 % 0 in
17:10 65.7 °F 57 °F 30.1 in WSW 7.1 mph 7.1 mph 74 % 0 in
17:15 65.5 °F 57 °F 30.1 in SW 4.6 mph 4.6 mph 74 % 0 in
17:20 65.3 °F 57.2 °F 30.1 in WSW 4.6 mph 4.6 mph 75 % 0 in
17:25 65.1 °F 57 °F 30.1 in SW 4.6 mph 4.6 mph 75 % 0 in
17:30 64.9 °F 56.8 °F 30.1 in SW 5.9 mph 5.9 mph 75 % 0 in
17:35 64.9 °F 56.8 °F 30.1 in WSW 4.9 mph 4.9 mph 75 % 0 in
17:40 64.8 °F 57 °F 30.1 in SSW 4.6 mph 4.6 mph 76 % 0 in
17:45 64.6 °F 56.8 °F 30.1 in SSW 5.8 mph 5.8 mph 76 % 0 in
17:50 64.4 °F 56.7 °F 30.1 in SW 5.4 mph 5.4 mph 76 % 0 in
17:55 64.2 °F 56.8 °F 30.1 in SW 5.8 mph 5.8 mph 77 % 0 in
18:00 64 °F 56.7 °F 30.1 in South 4.6 mph 4.6 mph 77 % 0 in
18:05 63.9 °F 56.5 °F 30.1 in SSW 5.8 mph 5.8 mph 77 % 0 in
18:10 63.9 °F 56.5 °F 30.1 in WSW 4.6 mph 4.6 mph 77 % 0 in
18:15 63.7 °F 56.7 °F 30.1 in SW 3.5 mph 3.5 mph 78 % 0 in
18:20 63.5 °F 56.5 °F 30.1 in SW 3.5 mph 3.5 mph 78 % 0 in
18:25 63.3 °F 56.3 °F 30.1 in SW 3.5 mph 3.5 mph 78 % 0 in
18:30 63.3 °F 56.3 °F 30.1 in WSW 3.5 mph 3.5 mph 78 % 0 in
18:35 63.1 °F 56.1 °F 30.1 in SSW 4.6 mph 4.6 mph 78 % 0 in
18:40 63.1 °F 56.5 °F 30.1 in SW 4.6 mph 4.6 mph 79 % 0 in
18:45 63 °F 56.3 °F 30.1 in WSW 3.5 mph 3.5 mph 79 % 0 in
18:50 62.8 °F 56.1 °F 30.1 in WSW 2.3 mph 2.3 mph 79 % 0 in
18:55 62.8 °F 56.1 °F 30.1 in WNW 2.3 mph 2.3 mph 79 % 0 in
19:00 62.6 °F 56.3 °F 30.1 in SW 2.3 mph 2.3 mph 80 % 0 in
19:05 62.4 °F 56.5 °F 30.1 in SSW 2.4 mph 2.4 mph 81 % 0 in
19:10 62.2 °F 56.3 °F 30.1 in SW 3.3 mph 3.3 mph 81 % 0 in
19:15 62.1 °F 56.1 °F 30.1 in WSW 3.8 mph 3.8 mph 81 % 0 in
19:20 61.9 °F 55.9 °F 30.1 in SW 4 mph 4 mph 81 % 0 in
19:25 61.9 °F 55.9 °F 30.1 in SW 3.5 mph 3.5 mph 81 % 0 in
19:30 61.7 °F 55.8 °F 30.1 in SSW 3.3 mph 3.3 mph 81 % 0 in
19:35 61.7 °F 55.8 °F 30.1 in SW 3.3 mph 3.3 mph 81 % 0 in
19:40 61.5 °F 55.6 °F 30.1 in SW 3.6 mph 3.6 mph 81 % 0 in
19:45 61.7 °F 55.8 °F 30.1 in SW 3.5 mph 3.5 mph 81 % 0 in
19:50 61.5 °F 55.6 °F 30.1 in WSW 2.6 mph 2.6 mph 81 % 0 in
19:55 61.3 °F 55.6 °F 30.1 in SW 2.3 mph 2.3 mph 81 % 0 in
20:00 61.3 °F 55.6 °F 30.1 in West 2.3 mph 2.3 mph 81 % 0 in
20:05 61.2 °F 55.2 °F 30.1 in West 1.6 mph 1.6 mph 81 % 0 in
20:10 61.2 °F 55.6 °F 30.1 in West 2.3 mph 2.3 mph 82 % 0 in
20:15 61.2 °F 55.2 °F 30.1 in West 2.3 mph 2.3 mph 81 % 0 in
20:20 61.2 °F 55.6 °F 30.1 in West 1.2 mph 1.2 mph 82 % 0 in
20:25 61 °F 55.4 °F 30.1 in SW 1.6 mph 1.6 mph 82 % 0 in
20:30 60.8 °F 55.2 °F 30.1 in West 2.3 mph 2.3 mph 82 % 0 in
20:35 60.6 °F 55 °F 30.1 in WSW 2.3 mph 2.3 mph 82 % 0 in
20:40 60.4 °F 54.9 °F 30.1 in WSW 2 mph 2 mph 82 % 0 in
20:45 60.3 °F 54.7 °F 30.1 in West 2.3 mph 2.3 mph 82 % 0 in
20:50 60.3 °F 54.7 °F 30.1 in SW 2.3 mph 2.3 mph 82 % 0 in
20:55 60.1 °F 54.7 °F 30.1 in WSW 1.4 mph 1.4 mph 82 % 0 in
21:00 60.1 °F 54.7 °F 30.1 in WSW 1.2 mph 1.4 mph 82 % 0 in
21:05 59.9 °F 54.3 °F 30.1 in West 2.6 mph 2.6 mph 82 % 0 in
21:10 59.7 °F 54.1 °F 30.1 in SW 2.3 mph 2.3 mph 82 % 0 in
21:15 59.5 °F 54.3 °F 30.1 in WSW 2.3 mph 2.3 mph 83 % 0 in
21:20 59.5 °F 54.3 °F 30.1 in West 2.3 mph 2.3 mph 83 % 0 in
21:25 59.5 °F 54.3 °F 30.1 in West 1.2 mph   83 % 0 in
21:30 59.5 °F 54.3 °F 30.1 in West 1.2 mph 1.2 mph 83 % 0 in
21:35 59.4 °F 54.1 °F 30.1 in SW 1.6 mph 1.6 mph 83 % 0 in
21:40 59.2 °F 54 °F 30.1 in Calm     83 % 0 in
21:45 59 °F 53.8 °F 30.1 in SW 1.2 mph   83 % 0 in
21:50 58.8 °F 53.8 °F 30.1 in SW 2 mph 2 mph 83 % 0 in
21:55 58.6 °F 53.4 °F 30.1 in SW 2.3 mph 2.3 mph 83 % 0 in
22:00 58.5 °F 53.2 °F 30.1 in SW 2.2 mph 2.2 mph 83 % 0 in
22:05 58.3 °F 53.1 °F 30.1 in WSW 2.3 mph 2.3 mph 83 % 0 in
22:10 58.3 °F 53.1 °F 30.1 in SW 2.3 mph 2.3 mph 83 % 0 in
22:15 58.1 °F 53.1 °F 30.1 in SW 1.2 mph 1.2 mph 83 % 0 in
22:20 58.1 °F 53.1 °F 30.1 in SW 1.6 mph 1.6 mph 83 % 0 in
22:25 58.1 °F 53.1 °F 30.1 in SW 1.2 mph 1.2 mph 83 % 0 in
22:30 58.1 °F 53.1 °F 30.1 in SW 2.3 mph   83 % 0 in
22:35 58.1 °F 53.1 °F 30.1 in SW 1.4 mph   83 % 0 in
22:40 57.9 °F 52.5 °F 30.1 in West 2.3 mph 2.3 mph 82 % 0 in
22:45 57.9 °F 52.5 °F 30.1 in SW 1.2 mph 1.2 mph 82 % 0 in
22:50 57.9 °F 52.5 °F 30.1 in WSW 2.3 mph 2.3 mph 82 % 0 in
22:51 57.9 °F 52.5 °F 30.1 in WSW 2.3 mph 2.3 mph 82 % 0 in
22:56 58.3 °F 52.9 °F 30.1 in WSW 2.3 mph 2.3 mph 82 % 0 in
23:01 58.3 °F 52.9 °F 30.1 in WSW 2.3 mph   82 % 0 in
23:06 58.3 °F 52.9 °F 30.1 in Calm     82 % 0 in
23:11 58.1 °F 52.5 °F 30.1 in Calm     82 % 0 in
23:16 57.9 °F 52.5 °F 30.1 in Calm     82 % 0 in
23:21 57.9 °F 52.5 °F 30.1 in Calm     82 % 0 in
23:26 57.7 °F 52.3 °F 30.1 in Calm     82 % 0 in
23:31 57.7 °F 52.3 °F 30.1 in Calm     82 % 0 in
23:36 57.6 °F 52.2 °F 30.1 in Calm     82 % 0 in
23:41 57.6 °F 52.3 °F 30.1 in Calm     83 % 0 in
23:46 57.4 °F 52.3 °F 30.1 in Calm     83 % 0 in
23:51 57.2 °F 52.2 °F 30.1 in North 1.4 mph   83 % 0 in
23:56 57 °F 52 °F 30.1 in ENE 1.6 mph   83 % 0 in
Meteo Sesrovires
Elogis d' Weather Underground - 3.5 mb

Guio original per  Jim McMurry - jmcmurry@mwt.net Adaptat per a la plantilla per  Wim van der Kuil - Leuven-Template.eu

Trobareu la nostra informacio del temps tambe a:

Weather Underground

AWEKAS